Time;durP1;ratioP1;P1;durP2;ratioP2;P2;SDS_P1;SDS_P2;PMS_P1;PMS_P2;Temp;Humidity;BMP_temperature;BMP_pressure;BME280_temperature;BME280_humidity;BME280_pressure;Samples;Min_cycle;Max_cycle;Signal;HPM_P1;HPM_P2
2021/01/07 00:07:35;;;;;;;2.20;0.63;;;4.70;99.90;;;;;;20485255;28;20649;-79
2021/01/07 00:17:38;;;;;;;1.17;1.07;;;4.60;99.90;;;;;;20616830;28;20238;-78
2021/01/07 00:27:42;;;;;;;1.23;1.13;;;4.60;99.90;;;;;;20600608;28;20699;-80
2021/01/07 00:37:47;;;;;;;1.57;1.37;;;4.70;99.90;;;;;;21540610;23;20393;-78
2021/01/07 00:48:09;;;;;;;0.33;0.30;;;4.70;99.90;;;;;;20538015;28;20210;-81
2021/01/07 00:58:42;;;;;;;0.43;0.30;;;4.80;99.90;;;;;;20515969;28;20231;-78
2021/01/07 01:08:46;;;;;;;0.20;0.10;;;5.00;99.90;;;;;;20542637;23;20236;-68
2021/01/07 01:18:49;;;;;;;0.47;0.47;;;5.20;99.90;;;;;;20538557;28;20322;-68
2021/01/07 01:28:53;;;;;;;0.30;0.20;;;5.70;99.90;;;;;;20539008;28;20215;-68
2021/01/07 01:38:56;;;;;;;0.20;0.20;;;5.80;99.90;;;;;;20537135;28;20231;-69
2021/01/07 01:49:00;;;;;;;0.20;0.10;;;5.90;99.90;;;;;;20535227;28;20204;-68
2021/01/07 02:09:42;;;;;;;0.20;0.10;;;5.90;99.90;;;;;;20230035;29;20238;-84
2021/01/07 02:19:44;;;;;;;0.43;0.43;;;6.00;99.90;;;;;;20222851;29;20241;-80
2021/01/07 02:29:49;;;;;;;0.30;0.30;;;6.00;99.90;;;;;;20220909;29;20315;-79
2021/01/07 02:39:51;;;;;;;0.33;0.33;;;6.20;99.90;;;;;;20203468;29;20238;-79
2021/01/07 02:49:54;;;;;;;0.50;0.50;;;6.20;99.90;;;;;;20231187;29;20427;-79
2021/01/07 02:59:57;;;;;;;1.47;1.17;;;6.20;99.90;;;;;;20283803;23;20246;-68
2021/01/07 03:10:01;;;;;;;0.93;0.47;;;6.20;99.90;;;;;;20546063;28;20207;-68
2021/01/07 03:20:14;;;;;;;1.20;0.87;;;6.20;99.90;;;;;;20549092;28;21076;-68
2021/01/07 03:30:19;;;;;;;0.30;0.30;;;6.20;99.90;;;;;;20546826;28;20212;-67
2021/01/07 03:40:22;;;;;;;1.73;0.60;;;6.30;99.90;;;;;;20527168;28;20224;-69
2021/01/07 03:50:26;;;;;;;11.17;1.90;;;6.00;99.90;;;;;;20545728;28;20207;-68
2021/01/07 04:00:28;;;;;;;0.20;0.10;;;5.90;99.90;;;;;;20551366;28;20235;-69
2021/01/07 04:10:34;;;;;;;0.20;0.20;;;5.70;99.90;;;;;;20622235;28;20306;-68
2021/01/07 04:20:37;;;;;;;0.97;0.97;;;5.50;99.90;;;;;;20614485;28;20216;-68
2021/01/07 04:30:40;;;;;;;3.30;0.93;;;5.40;99.90;;;;;;20616167;28;20467;-68
2021/01/07 04:40:44;;;;;;;0.50;0.50;;;5.20;99.90;;;;;;20617258;28;20219;-69
2021/01/07 04:50:47;;;;;;;2.07;1.93;;;5.30;99.90;;;;;;20600377;28;20385;-68
2021/01/07 05:00:50;;;;;;;2.07;1.20;;;5.20;99.90;;;;;;20617184;23;20327;-73
2021/01/07 05:10:54;;;;;;;0.40;0.40;;;5.20;99.90;;;;;;20534941;28;20221;-71
2021/01/07 05:20:57;;;;;;;0.47;0.47;;;5.10;99.90;;;;;;20533322;28;20207;-72
2021/01/07 05:31:03;;;;;;;0.50;0.30;;;5.10;99.90;;;;;;20516003;28;20680;-72
2021/01/07 05:41:13;;;;;;;3.60;1.03;;;5.20;99.90;;;;;;20513704;28;20552;-71
2021/01/07 05:51:16;;;;;;;0.67;0.67;;;5.00;99.90;;;;;;20532454;28;20195;-72
2021/01/07 06:01:21;;;;;;;2.27;0.80;;;4.90;99.90;;;;;;20547443;28;20223;-74
2021/01/07 06:11:25;;;;;;;5.33;1.23;;;4.80;99.90;;;;;;20611490;28;20219;-71
2021/01/07 06:21:30;;;;;;;2.23;0.93;;;4.70;99.90;;;;;;20598887;28;20196;-73
2021/01/07 06:31:34;;;;;;;0.77;0.77;;;4.70;99.90;;;;;;20627442;28;20250;-72
2021/01/07 06:41:37;;;;;;;2.40;0.73;;;4.80;99.90;;;;;;20625337;28;20206;-71
2021/01/07 06:51:40;;;;;;;0.40;0.40;;;4.80;99.90;;;;;;20624223;28;20557;-70
2021/01/07 07:01:48;;;;;;;1.13;1.03;;;4.80;99.90;;;;;;20622361;28;20276;-71
2021/01/07 07:11:53;;;;;;;1.10;0.90;;;4.80;99.90;;;;;;20620760;28;20230;-72
2021/01/07 07:21:57;;;;;;;3.03;0.73;;;4.80;99.90;;;;;;20622708;28;20195;-70
2021/01/07 07:32:02;;;;;;;3.03;1.60;;;4.90;99.90;;;;;;20619823;28;20223;-72
2021/01/07 07:42:09;;;;;;;0.60;0.53;;;4.80;99.90;;;;;;20623084;28;20282;-71
2021/01/07 07:52:20;;;;;;;0.67;0.57;;;4.90;99.90;;;;;;20619895;28;20281;-74
2021/01/07 08:02:23;;;;;;;0.67;0.67;;;4.90;99.90;;;;;;20618906;28;20242;-72
2021/01/07 08:12:26;;;;;;;10.17;2.87;;;5.00;99.90;;;;;;20619475;28;20223;-71
2021/01/07 08:22:31;;;;;;;0.93;0.93;;;5.00;99.90;;;;;;20596475;28;20211;-72
2021/01/07 08:32:40;;;;;;;5.13;1.40;;;5.10;99.90;;;;;;20616670;28;20739;-70
2021/01/07 08:42:42;;;;;;;4.33;2.87;;;5.20;99.90;;;;;;20615508;28;20209;-70
2021/01/07 08:52:51;;;;;;;3.43;2.47;;;5.30;99.90;;;;;;20598624;28;20223;-71
2021/01/07 09:03:01;;;;;;;4.00;1.60;;;5.40;99.90;;;;;;20616577;28;21092;-76
2021/01/07 09:13:18;;;;;;;1.13;1.13;;;5.80;99.90;;;;;;20575618;28;20227;-76
2021/01/07 09:23:21;;;;;;;1.53;1.43;;;6.00;99.90;;;;;;20614209;28;20195;-75
2021/01/07 09:33:24;;;;;;;12.50;1.97;;;6.30;99.90;;;;;;20543044;23;20242;-68
2021/01/07 09:43:27;;;;;;;1.87;1.17;;;6.50;99.90;;;;;;20452153;29;20227;-69
2021/01/07 09:53:30;;;;;;;5.73;2.47;;;6.60;99.90;;;;;;20454071;29;20233;-68
2021/01/07 10:03:33;;;;;;;4.13;1.53;;;7.10;99.90;;;;;;20467247;28;20273;-68
2021/01/07 10:13:36;;;;;;;2.27;1.67;;;7.20;99.90;;;;;;20466202;29;20231;-67
2021/01/07 10:23:41;;;;;;;0.70;0.63;;;7.40;99.90;;;;;;20467216;29;20619;-68
2021/01/07 10:33:46;;;;;;;1.03;1.00;;;8.20;99.90;;;;;;20478068;28;20232;-70
2021/01/07 10:43:49;;;;;;;2.93;2.03;;;8.30;99.90;;;;;;20545286;28;20641;-68
2021/01/07 10:54:08;;;;;;;3.93;0.77;;;9.00;99.90;;;;;;20542601;28;20235;-68
2021/01/07 11:04:51;;;;;;;3.40;2.10;;;9.40;99.90;;;;;;20514838;28;20538;-70
2021/01/07 11:15:02;;;;;;;0.20;0.10;;;9.80;99.90;;;;;;20461259;28;20241;-70
2021/01/07 11:25:07;;;;;;;0.50;0.40;;;9.50;99.90;;;;;;20461869;29;20344;-69
2021/01/07 11:35:11;;;;;;;0.50;0.50;;;9.30;99.90;;;;;;20462745;29;20643;-70
2021/01/07 11:45:19;;;;;;;0.30;0.27;;;9.20;99.90;;;;;;20461854;29;20663;-69
2021/01/07 11:55:23;;;;;;;0.63;0.60;;;9.00;99.90;;;;;;20477686;28;20254;-72
2021/01/07 12:05:26;;;;;;;0.93;0.93;;;9.20;99.90;;;;;;20537218;28;20196;-68
2021/01/07 12:15:32;;;;;;;0.93;0.93;;;9.60;99.90;;;;;;20538737;28;20897;-67
2021/01/07 12:25:36;;;;;;;1.80;0.60;;;9.50;99.90;;;;;;20535546;28;20199;-69
2021/01/07 12:35:46;;;;;;;0.87;0.50;;;9.20;99.90;;;;;;20515528;28;20320;-70
2021/01/07 12:45:53;;;;;;;1.00;0.67;;;9.10;99.90;;;;;;20534718;28;20304;-71
2021/01/07 12:55:57;;;;;;;0.90;0.90;;;9.00;99.90;;;;;;20530095;28;20228;-70
2021/01/07 13:06:03;;;;;;;1.13;0.57;;;9.00;99.90;;;;;;20510356;28;20216;-69
2021/01/07 13:16:07;;;;;;;2.53;1.33;;;9.00;99.90;;;;;;20453629;29;20649;-69
2021/01/07 13:26:10;;;;;;;0.50;0.50;;;8.60;99.90;;;;;;20459948;28;20346;-69
2021/01/07 13:36:15;;;;;;;1.50;1.30;;;9.00;99.90;;;;;;20480861;28;20262;-70
2021/01/07 13:46:21;;;;;;;0.37;0.37;;;9.20;99.90;;;;;;20455747;28;20600;-70
2021/01/07 13:56:28;;;;;;;2.93;2.33;;;9.10;99.90;;;;;;20509670;28;20242;-70
2021/01/07 14:06:32;;;;;;;4.03;1.20;;;9.30;99.90;;;;;;20531167;28;20745;-69
2021/01/07 14:16:36;;;;;;;0.90;0.90;;;9.10;99.90;;;;;;20530230;28;20228;-69
2021/01/07 14:27:08;;;;;;;2.17;1.33;;;8.90;99.90;;;;;;20520950;28;20535;-69
2021/01/07 14:37:16;;;;;;;3.30;1.40;;;9.10;99.90;;;;;;20488559;28;20232;-70
2021/01/07 14:47:24;;;;;;;0.53;0.53;;;8.90;99.90;;;;;;20459270;28;20217;-69
2021/01/07 14:57:55;;;;;;;3.37;2.00;;;8.80;99.90;;;;;;20466670;28;20267;-67
2021/01/07 15:08:22;;;;;;;1.17;1.10;;;8.60;99.90;;;;;;20462764;29;20204;-66
2021/01/07 15:18:39;;;;;;;2.00;1.80;;;8.50;99.90;;;;;;20516159;28;20239;-68
2021/01/07 15:28:55;;;;;;;6.17;3.73;;;8.50;99.90;;;;;;20538345;28;20676;-68
2021/01/07 15:39:43;;;;;;;3.47;2.53;;;8.20;99.90;;;;;;20543208;28;20239;-67
2021/01/07 15:49:54;;;;;;;2.43;1.27;;;8.10;99.90;;;;;;20546103;28;20693;-68
2021/01/07 16:00:05;;;;;;;4.13;3.73;;;8.00;99.90;;;;;;20564700;28;20862;-69
2021/01/07 16:10:08;;;;;;;1.63;1.53;;;7.90;99.90;;;;;;20539666;28;20204;-68
2021/01/07 16:20:13;;;;;;;2.47;1.73;;;7.90;99.90;;;;;;20536685;28;20369;-68
2021/01/07 16:30:18;;;;;;;5.60;3.00;;;7.80;99.90;;;;;;20534813;28;20365;-68
2021/01/07 16:40:23;;;;;;;3.63;2.53;;;7.80;99.90;;;;;;20525339;28;20235;-68
2021/01/07 16:50:26;;;;;;;2.07;1.80;;;7.30;99.90;;;;;;20535139;28;20188;-69
2021/01/07 17:00:29;;;;;;;2.43;2.00;;;7.10;99.90;;;;;;20531270;28;20254;-69
2021/01/07 17:10:35;;;;;;;4.17;1.63;;;7.00;99.90;;;;;;20531575;28;20621;-68
2021/01/07 17:20:39;;;;;;;4.83;3.43;;;6.90;99.90;;;;;;20528369;28;20587;-69
2021/01/07 17:30:41;;;;;;;1.67;1.10;;;6.90;99.90;;;;;;20511623;28;20207;-68
2021/01/07 17:40:45;;;;;;;2.07;1.90;;;6.80;99.90;;;;;;20529711;28;20228;-68
2021/01/07 17:50:47;;;;;;;1.23;1.20;;;6.70;99.90;;;;;;20533334;28;20347;-68
2021/01/07 18:00:51;;;;;;;3.07;2.03;;;6.60;99.90;;;;;;20528485;28;20219;-68
2021/01/07 18:10:54;;;;;;;3.17;1.37;;;6.60;99.90;;;;;;20530844;28;20302;-67
2021/01/07 18:20:57;;;;;;;0.60;0.60;;;6.50;99.90;;;;;;20539963;28;20669;-70
2021/01/07 18:31:00;;;;;;;1.60;1.40;;;6.40;99.90;;;;;;20543787;28;20204;-68
2021/01/07 18:41:04;;;;;;;1.13;0.97;;;6.40;99.90;;;;;;20545421;28;20240;-69
2021/01/07 18:51:07;;;;;;;3.23;2.70;;;6.40;99.90;;;;;;20544987;28;20335;-66
2021/01/07 19:01:12;;;;;;;2.00;1.43;;;6.40;99.90;;;;;;20542966;28;20281;-68
2021/01/07 19:11:16;;;;;;;1.73;1.63;;;6.50;99.90;;;;;;20508639;28;20300;-68
2021/01/07 19:21:19;;;;;;;1.73;1.60;;;6.40;99.90;;;;;;20542486;28;20224;-69
2021/01/07 19:31:22;;;;;;;0.83;0.80;;;6.40;99.90;;;;;;20523809;28;20290;-68
2021/01/07 19:41:29;;;;;;;2.57;1.97;;;6.30;99.90;;;;;;20508775;28;20692;-68
2021/01/07 19:51:32;;;;;;;1.93;1.47;;;6.30;99.90;;;;;;20507150;28;20483;-68
2021/01/07 20:01:42;;;;;;;2.37;1.33;;;6.30;99.90;;;;;;20537816;28;20224;-67
2021/01/07 20:11:45;;;;;;;0.73;0.57;;;6.30;99.90;;;;;;20519820;28;20553;-69
2021/01/07 20:21:49;;;;;;;1.90;1.43;;;6.10;99.90;;;;;;20537409;28;20224;-68
2021/01/07 20:31:52;;;;;;;3.40;0.70;;;6.10;99.90;;;;;;20539944;28;20559;-68
2021/01/07 20:41:55;;;;;;;5.93;3.33;;;6.00;99.90;;;;;;20536337;28;20239;-69
2021/01/07 20:51:58;;;;;;;3.57;2.13;;;5.90;99.90;;;;;;20538612;28;20562;-68
2021/01/07 21:02:02;;;;;;;1.57;1.10;;;5.90;99.90;;;;;;20538248;28;20688;-68
2021/01/07 21:12:06;;;;;;;2.17;2.00;;;6.00;99.90;;;;;;20540719;28;20299;-68
2021/01/07 21:22:09;;;;;;;4.37;1.40;;;6.10;99.90;;;;;;20535588;28;20228;-68
2021/01/07 21:32:14;;;;;;;1.27;1.20;;;6.20;99.90;;;;;;20528373;28;20319;-68
2021/01/07 21:42:18;;;;;;;2.13;1.93;;;6.20;99.90;;;;;;20459949;29;20236;-68
2021/01/07 21:52:20;;;;;;;1.37;1.27;;;6.20;99.90;;;;;;20457815;28;20219;-69
2021/01/07 22:02:24;;;;;;;3.07;2.53;;;6.00;99.90;;;;;;20454292;29;20568;-69
2021/01/07 22:12:27;;;;;;;1.00;0.90;;;5.60;99.90;;;;;;20436912;29;20205;-69
2021/01/07 22:22:32;;;;;;;1.03;0.77;;;5.50;99.90;;;;;;20452506;29;20666;-68
2021/01/07 22:32:34;;;;;;;1.73;0.87;;;5.40;99.90;;;;;;20480228;28;20331;-68
2021/01/07 22:42:40;;;;;;;1.73;1.60;;;5.30;99.90;;;;;;20532068;28;20201;-69
2021/01/07 22:52:44;;;;;;;2.40;2.20;;;5.10;99.90;;;;;;20533177;28;20204;-68
2021/01/07 23:02:51;;;;;;;3.90;2.53;;;5.00;99.90;;;;;;20530293;28;20207;-68
2021/01/07 23:12:53;;;;;;;1.83;1.73;;;5.00;99.90;;;;;;20544796;28;20204;-68
2021/01/07 23:22:57;;;;;;;1.97;1.37;;;4.90;99.90;;;;;;20539710;28;20688;-67
2021/01/07 23:33:02;;;;;;;0.97;0.97;;;4.90;99.90;;;;;;20543923;28;20232;-68
2021/01/07 23:43:06;;;;;;;1.87;1.77;;;4.80;99.90;;;;;;20494335;28;20200;-68
2021/01/07 23:53:08;;;;;;;4.27;2.07;;;4.90;99.90;;;;;;20542783;28;20521;-68
